sensor_id;sensor_type;location;lat;lon;timestamp;P1;durP1;ratioP1;P2;durP2;ratioP2
6203;SDS011;3135;42.602;23.468;2022-07-29T00:00:36;8.10;;;6.18;;
6203;SDS011;3135;42.602;23.468;2022-07-29T00:03:02;8.80;;;5.73;;
6203;SDS011;3135;42.602;23.468;2022-07-29T00:05:28;9.03;;;5.70;;
6203;SDS011;3135;42.602;23.468;2022-07-29T00:07:53;9.75;;;6.57;;
6203;SDS011;3135;42.602;23.468;2022-07-29T00:10:19;8.37;;;5.97;;
6203;SDS011;3135;42.602;23.468;2022-07-29T00:12:45;8.53;;;5.90;;
6203;SDS011;3135;42.602;23.468;2022-07-29T00:15:10;7.80;;;6.10;;
6203;SDS011;3135;42.602;23.468;2022-07-29T00:17:36;9.60;;;6.30;;
6203;SDS011;3135;42.602;23.468;2022-07-29T00:20:01;8.77;;;6.20;;
6203;SDS011;3135;42.602;23.468;2022-07-29T00:22:27;8.32;;;6.00;;
6203;SDS011;3135;42.602;23.468;2022-07-29T00:24:52;8.13;;;5.88;;
6203;SDS011;3135;42.602;23.468;2022-07-29T00:27:18;10.23;;;5.80;;
6203;SDS011;3135;42.602;23.468;2022-07-29T00:29:43;10.80;;;6.07;;
6203;SDS011;3135;42.602;23.468;2022-07-29T00:32:09;7.77;;;5.47;;
6203;SDS011;3135;42.602;23.468;2022-07-29T00:34:35;7.30;;;5.63;;
6203;SDS011;3135;42.602;23.468;2022-07-29T00:37:19;7.73;;;5.73;;
6203;SDS011;3135;42.602;23.468;2022-07-29T00:39:44;7.77;;;6.30;;
6203;SDS011;3135;42.602;23.468;2022-07-29T00:42:10;7.33;;;5.90;;
6203;SDS011;3135;42.602;23.468;2022-07-29T00:44:39;7.25;;;5.70;;
6203;SDS011;3135;42.602;23.468;2022-07-29T00:47:06;8.07;;;5.75;;
6203;SDS011;3135;42.602;23.468;2022-07-29T00:49:33;6.78;;;5.35;;
6203;SDS011;3135;42.602;23.468;2022-07-29T00:52:00;8.18;;;5.18;;
6203;SDS011;3135;42.602;23.468;2022-07-29T00:54:30;8.80;;;5.68;;
6203;SDS011;3135;42.602;23.468;2022-07-29T00:56:57;7.70;;;5.10;;
6203;SDS011;3135;42.602;23.468;2022-07-29T00:59:23;8.05;;;5.45;;
6203;SDS011;3135;42.602;23.468;2022-07-29T01:01:50;6.55;;;5.10;;
6203;SDS011;3135;42.602;23.468;2022-07-29T01:04:15;8.17;;;5.47;;
6203;SDS011;3135;42.602;23.468;2022-07-29T01:06:41;7.43;;;5.33;;
6203;SDS011;3135;42.602;23.468;2022-07-29T01:09:07;8.98;;;5.43;;
6203;SDS011;3135;42.602;23.468;2022-07-29T01:11:34;7.47;;;5.13;;
6203;SDS011;3135;42.602;23.468;2022-07-29T01:14:01;7.45;;;4.95;;
6203;SDS011;3135;42.602;23.468;2022-07-29T01:16:30;5.70;;;5.00;;
6203;SDS011;3135;42.602;23.468;2022-07-29T01:18:59;6.85;;;5.00;;
6203;SDS011;3135;42.602;23.468;2022-07-29T01:21:51;7.95;;;5.28;;
6203;SDS011;3135;42.602;23.468;2022-07-29T01:30:12;8.50;;;4.70;;
6203;SDS011;3135;42.602;23.468;2022-07-29T01:32:38;8.17;;;4.83;;
6203;SDS011;3135;42.602;23.468;2022-07-29T01:35:23;7.80;;;5.17;;
6203;SDS011;3135;42.602;23.468;2022-07-29T01:40:40;7.38;;;4.95;;
6203;SDS011;3135;42.602;23.468;2022-07-29T01:43:11;5.30;;;4.40;;
6203;SDS011;3135;42.602;23.468;2022-07-29T01:45:56;5.10;;;4.32;;
6203;SDS011;3135;42.602;23.468;2022-07-29T01:48:34;5.28;;;4.07;;
6203;SDS011;3135;42.602;23.468;2022-07-29T01:51:48;6.57;;;4.80;;
6203;SDS011;3135;42.602;23.468;2022-07-29T01:54:06;5.57;;;4.30;;
6203;SDS011;3135;42.602;23.468;2022-07-29T01:56:37;6.05;;;4.25;;
6203;SDS011;3135;42.602;23.468;2022-07-29T01:59:04;7.72;;;4.93;;
6203;SDS011;3135;42.602;23.468;2022-07-29T02:01:32;6.05;;;4.60;;
6203;SDS011;3135;42.602;23.468;2022-07-29T02:04:01;5.72;;;4.28;;
6203;SDS011;3135;42.602;23.468;2022-07-29T02:06:29;6.35;;;4.88;;
6203;SDS011;3135;42.602;23.468;2022-07-29T02:08:57;4.63;;;4.00;;
6203;SDS011;3135;42.602;23.468;2022-07-29T02:11:24;5.30;;;4.35;;
6203;SDS011;3135;42.602;23.468;2022-07-29T02:13:49;5.70;;;4.28;;
6203;SDS011;3135;42.602;23.468;2022-07-29T02:16:21;7.22;;;4.00;;
6203;SDS011;3135;42.602;23.468;2022-07-29T02:18:50;4.68;;;3.88;;
6203;SDS011;3135;42.602;23.468;2022-07-29T02:21:19;5.95;;;4.05;;
6203;SDS011;3135;42.602;23.468;2022-07-29T02:23:48;4.68;;;4.15;;
6203;SDS011;3135;42.602;23.468;2022-07-29T02:26:16;6.60;;;4.57;;
6203;SDS011;3135;42.602;23.468;2022-07-29T02:28:44;7.30;;;4.97;;
6203;SDS011;3135;42.602;23.468;2022-07-29T02:31:11;7.13;;;4.90;;
6203;SDS011;3135;42.602;23.468;2022-07-29T02:33:38;5.50;;;4.50;;
6203;SDS011;3135;42.602;23.468;2022-07-29T02:36:05;4.68;;;4.18;;
6203;SDS011;3135;42.602;23.468;2022-07-29T02:38:31;6.65;;;4.63;;
6203;SDS011;3135;42.602;23.468;2022-07-29T02:41:23;7.40;;;4.53;;
6203;SDS011;3135;42.602;23.468;2022-07-29T02:43:55;5.13;;;4.20;;
6203;SDS011;3135;42.602;23.468;2022-07-29T02:46:30;4.55;;;3.97;;
6203;SDS011;3135;42.602;23.468;2022-07-29T02:49:02;4.85;;;4.03;;
6203;SDS011;3135;42.602;23.468;2022-07-29T02:51:36;5.30;;;4.25;;
6203;SDS011;3135;42.602;23.468;2022-07-29T02:54:08;5.25;;;4.03;;
6203;SDS011;3135;42.602;23.468;2022-07-29T02:56:35;6.37;;;4.67;;
6203;SDS011;3135;42.602;23.468;2022-07-29T02:59:06;6.22;;;4.40;;
6203;SDS011;3135;42.602;23.468;2022-07-29T03:01:35;6.33;;;3.80;;
6203;SDS011;3135;42.602;23.468;2022-07-29T03:04:05;5.23;;;4.00;;
6203;SDS011;3135;42.602;23.468;2022-07-29T03:06:32;6.53;;;4.00;;
6203;SDS011;3135;42.602;23.468;2022-07-29T03:08:59;4.30;;;3.63;;
6203;SDS011;3135;42.602;23.468;2022-07-29T03:11:25;4.05;;;3.47;;
6203;SDS011;3135;42.602;23.468;2022-07-29T03:13:51;5.13;;;3.65;;
6203;SDS011;3135;42.602;23.468;2022-07-29T03:16:19;4.20;;;3.25;;
6203;SDS011;3135;42.602;23.468;2022-07-29T03:18:45;4.55;;;3.47;;
6203;SDS011;3135;42.602;23.468;2022-07-29T03:21:11;4.65;;;3.85;;
6203;SDS011;3135;42.602;23.468;2022-07-29T03:23:37;4.60;;;3.67;;
6203;SDS011;3135;42.602;23.468;2022-07-29T03:26:08;3.90;;;3.50;;
6203;SDS011;3135;42.602;23.468;2022-07-29T03:28:33;5.23;;;3.90;;
6203;SDS011;3135;42.602;23.468;2022-07-29T03:30:58;4.93;;;3.67;;
6203;SDS011;3135;42.602;23.468;2022-07-29T03:33:24;4.57;;;3.40;;
6203;SDS011;3135;42.602;23.468;2022-07-29T03:35:49;3.77;;;3.17;;
6203;SDS011;3135;42.602;23.468;2022-07-29T03:38:15;3.40;;;3.10;;
6203;SDS011;3135;42.602;23.468;2022-07-29T03:40:42;3.33;;;3.03;;
6203;SDS011;3135;42.602;23.468;2022-07-29T03:43:12;3.17;;;2.97;;
6203;SDS011;3135;42.602;23.468;2022-07-29T03:45:42;3.63;;;3.33;;
6203;SDS011;3135;42.602;23.468;2022-07-29T03:48:12;4.45;;;3.40;;
6203;SDS011;3135;42.602;23.468;2022-07-29T03:50:40;3.78;;;3.10;;
6203;SDS011;3135;42.602;23.468;2022-07-29T03:53:06;3.78;;;3.40;;
6203;SDS011;3135;42.602;23.468;2022-07-29T03:55:33;3.47;;;3.15;;
6203;SDS011;3135;42.602;23.468;2022-07-29T03:58:04;5.20;;;3.40;;
6203;SDS011;3135;42.602;23.468;2022-07-29T04:00:31;5.28;;;3.17;;
6203;SDS011;3135;42.602;23.468;2022-07-29T04:02:58;3.90;;;3.08;;
6203;SDS011;3135;42.602;23.468;2022-07-29T04:05:24;3.53;;;3.20;;
6203;SDS011;3135;42.602;23.468;2022-07-29T04:07:49;3.40;;;3.10;;
6203;SDS011;3135;42.602;23.468;2022-07-29T04:10:15;3.60;;;3.03;;
6203;SDS011;3135;42.602;23.468;2022-07-29T04:12:42;3.58;;;3.10;;
6203;SDS011;3135;42.602;23.468;2022-07-29T04:15:07;4.80;;;3.40;;
6203;SDS011;3135;42.602;23.468;2022-07-29T04:17:33;3.88;;;3.03;;
6203;SDS011;3135;42.602;23.468;2022-07-29T04:19:59;3.50;;;3.20;;
6203;SDS011;3135;42.602;23.468;2022-07-29T04:22:24;4.07;;;3.33;;
6203;SDS011;3135;42.602;23.468;2022-07-29T04:24:50;4.43;;;3.27;;
6203;SDS011;3135;42.602;23.468;2022-07-29T04:27:15;3.58;;;3.15;;
6203;SDS011;3135;42.602;23.468;2022-07-29T04:29:41;5.28;;;2.85;;
6203;SDS011;3135;42.602;23.468;2022-07-29T04:32:06;3.65;;;3.30;;
6203;SDS011;3135;42.602;23.468;2022-07-29T04:34:32;3.40;;;3.10;;
6203;SDS011;3135;42.602;23.468;2022-07-29T04:36:57;6.73;;;3.40;;
6203;SDS011;3135;42.602;23.468;2022-07-29T04:39:23;3.30;;;3.00;;
6203;SDS011;3135;42.602;23.468;2022-07-29T04:41:49;4.22;;;3.20;;
6203;SDS011;3135;42.602;23.468;2022-07-29T04:44:15;4.35;;;3.42;;
6203;SDS011;3135;42.602;23.468;2022-07-29T04:46:40;4.03;;;3.67;;
6203;SDS011;3135;42.602;23.468;2022-07-29T04:49:06;6.13;;;3.40;;
6203;SDS011;3135;42.602;23.468;2022-07-29T04:51:31;6.63;;;3.60;;
6203;SDS011;3135;42.602;23.468;2022-07-29T04:53:57;4.63;;;4.00;;
6203;SDS011;3135;42.602;23.468;2022-07-29T04:56:22;6.40;;;4.27;;
6203;SDS011;3135;42.602;23.468;2022-07-29T04:58:48;8.10;;;4.88;;
6203;SDS011;3135;42.602;23.468;2022-07-29T05:01:13;7.10;;;4.90;;
6203;SDS011;3135;42.602;23.468;2022-07-29T05:03:39;5.90;;;4.50;;
6203;SDS011;3135;42.602;23.468;2022-07-29T05:06:05;6.50;;;4.80;;
6203;SDS011;3135;42.602;23.468;2022-07-29T05:08:30;5.80;;;4.90;;
6203;SDS011;3135;42.602;23.468;2022-07-29T05:10:56;6.17;;;5.03;;
6203;SDS011;3135;42.602;23.468;2022-07-29T05:13:21;6.23;;;4.80;;
6203;SDS011;3135;42.602;23.468;2022-07-29T05:15:47;6.95;;;5.32;;
6203;SDS011;3135;42.602;23.468;2022-07-29T05:18:12;7.73;;;5.40;;
6203;SDS011;3135;42.602;23.468;2022-07-29T05:20:37;6.33;;;5.10;;
6203;SDS011;3135;42.602;23.468;2022-07-29T05:23:03;5.88;;;4.55;;
6203;SDS011;3135;42.602;23.468;2022-07-29T05:25:29;7.13;;;5.00;;
6203;SDS011;3135;42.602;23.468;2022-07-29T05:27:55;8.88;;;5.55;;
6203;SDS011;3135;42.602;23.468;2022-07-29T05:30:21;8.65;;;6.10;;
6203;SDS011;3135;42.602;23.468;2022-07-29T05:32:47;7.38;;;5.55;;
6203;SDS011;3135;42.602;23.468;2022-07-29T05:35:12;6.53;;;5.17;;
6203;SDS011;3135;42.602;23.468;2022-07-29T05:37:38;6.78;;;5.00;;
6203;SDS011;3135;42.602;23.468;2022-07-29T05:40:04;5.60;;;4.70;;
6203;SDS011;3135;42.602;23.468;2022-07-29T05:42:30;6.45;;;5.30;;
6203;SDS011;3135;42.602;23.468;2022-07-29T05:44:56;6.40;;;5.00;;
6203;SDS011;3135;42.602;23.468;2022-07-29T05:47:21;6.03;;;5.10;;
6203;SDS011;3135;42.602;23.468;2022-07-29T05:49:47;6.45;;;5.05;;
6203;SDS011;3135;42.602;23.468;2022-07-29T05:52:12;8.13;;;4.93;;
6203;SDS011;3135;42.602;23.468;2022-07-29T05:54:38;5.13;;;4.63;;
6203;SDS011;3135;42.602;23.468;2022-07-29T05:57:04;7.18;;;5.00;;
6203;SDS011;3135;42.602;23.468;2022-07-29T05:59:30;6.05;;;5.20;;
6203;SDS011;3135;42.602;23.468;2022-07-29T06:01:56;6.43;;;5.15;;
6203;SDS011;3135;42.602;23.468;2022-07-29T06:04:22;6.85;;;5.40;;
6203;SDS011;3135;42.602;23.468;2022-07-29T06:06:47;6.47;;;5.00;;
6203;SDS011;3135;42.602;23.468;2022-07-29T06:09:13;5.82;;;5.05;;
6203;SDS011;3135;42.602;23.468;2022-07-29T06:11:38;7.53;;;5.23;;
6203;SDS011;3135;42.602;23.468;2022-07-29T06:14:04;7.50;;;5.30;;
6203;SDS011;3135;42.602;23.468;2022-07-29T06:16:30;7.17;;;4.97;;
6203;SDS011;3135;42.602;23.468;2022-07-29T06:18:55;7.77;;;5.20;;
6203;SDS011;3135;42.602;23.468;2022-07-29T06:21:21;11.57;;;5.63;;
6203;SDS011;3135;42.602;23.468;2022-07-29T06:23:46;7.17;;;5.80;;
6203;SDS011;3135;42.602;23.468;2022-07-29T06:26:12;6.40;;;5.07;;
6203;SDS011;3135;42.602;23.468;2022-07-29T06:28:37;7.50;;;5.37;;
6203;SDS011;3135;42.602;23.468;2022-07-29T06:31:03;6.73;;;5.13;;
6203;SDS011;3135;42.602;23.468;2022-07-29T06:33:28;7.50;;;4.93;;
6203;SDS011;3135;42.602;23.468;2022-07-29T06:35:54;7.97;;;4.80;;
6203;SDS011;3135;42.602;23.468;2022-07-29T06:38:19;5.78;;;4.63;;
6203;SDS011;3135;42.602;23.468;2022-07-29T06:40:45;5.43;;;4.35;;
6203;SDS011;3135;42.602;23.468;2022-07-29T06:43:39;7.77;;;4.90;;
6203;SDS011;3135;42.602;23.468;2022-07-29T06:46:13;4.47;;;4.07;;
6203;SDS011;3135;42.602;23.468;2022-07-29T06:48:40;4.97;;;4.55;;
6203;SDS011;3135;42.602;23.468;2022-07-29T06:51:10;4.53;;;4.13;;
6203;SDS011;3135;42.602;23.468;2022-07-29T06:53:36;4.10;;;3.80;;
6203;SDS011;3135;42.602;23.468;2022-07-29T06:56:03;4.63;;;4.10;;
6203;SDS011;3135;42.602;23.468;2022-07-29T06:58:29;4.40;;;4.00;;
6203;SDS011;3135;42.602;23.468;2022-07-29T07:00:55;6.07;;;4.20;;
6203;SDS011;3135;42.602;23.468;2022-07-29T07:03:22;4.20;;;3.80;;
6203;SDS011;3135;42.602;23.468;2022-07-29T07:05:48;3.73;;;3.43;;
6203;SDS011;3135;42.602;23.468;2022-07-29T07:08:14;3.90;;;3.60;;
6203;SDS011;3135;42.602;23.468;2022-07-29T07:10:41;3.80;;;3.40;;
6203;SDS011;3135;42.602;23.468;2022-07-29T07:13:07;3.50;;;3.20;;
6203;SDS011;3135;42.602;23.468;2022-07-29T07:15:32;4.70;;;3.47;;
6203;SDS011;3135;42.602;23.468;2022-07-29T07:17:58;4.78;;;3.70;;
6203;SDS011;3135;42.602;23.468;2022-07-29T07:20:24;3.60;;;3.17;;
6203;SDS011;3135;42.602;23.468;2022-07-29T07:22:49;4.45;;;3.15;;
6203;SDS011;3135;42.602;23.468;2022-07-29T07:25:15;3.53;;;3.23;;
6203;SDS011;3135;42.602;23.468;2022-07-29T07:27:44;3.40;;;3.10;;
6203;SDS011;3135;42.602;23.468;2022-07-29T07:30:10;3.37;;;3.07;;
6203;SDS011;3135;42.602;23.468;2022-07-29T07:32:36;4.03;;;3.43;;
6203;SDS011;3135;42.602;23.468;2022-07-29T07:35:02;3.33;;;3.03;;
6203;SDS011;3135;42.602;23.468;2022-07-29T07:37:28;4.20;;;2.83;;
6203;SDS011;3135;42.602;23.468;2022-07-29T07:39:54;3.37;;;3.07;;
6203;SDS011;3135;42.602;23.468;2022-07-29T07:42:19;3.20;;;2.90;;
6203;SDS011;3135;42.602;23.468;2022-07-29T07:44:45;3.90;;;3.40;;
6203;SDS011;3135;42.602;23.468;2022-07-29T07:47:11;4.43;;;3.10;;
6203;SDS011;3135;42.602;23.468;2022-07-29T07:49:37;5.15;;;2.60;;
6203;SDS011;3135;42.602;23.468;2022-07-29T07:52:02;4.30;;;3.00;;
6203;SDS011;3135;42.602;23.468;2022-07-29T07:54:28;3.40;;;2.63;;
6203;SDS011;3135;42.602;23.468;2022-07-29T07:56:54;3.13;;;2.93;;
6203;SDS011;3135;42.602;23.468;2022-07-29T07:59:19;2.53;;;2.40;;
6203;SDS011;3135;42.602;23.468;2022-07-29T08:01:45;2.90;;;2.70;;
6203;SDS011;3135;42.602;23.468;2022-07-29T08:04:10;3.33;;;2.80;;
6203;SDS011;3135;42.602;23.468;2022-07-29T08:06:36;2.40;;;2.20;;
6203;SDS011;3135;42.602;23.468;2022-07-29T08:09:04;2.73;;;2.47;;
6203;SDS011;3135;42.602;23.468;2022-07-29T08:11:30;3.00;;;2.50;;
6203;SDS011;3135;42.602;23.468;2022-07-29T08:13:56;2.40;;;2.20;;
6203;SDS011;3135;42.602;23.468;2022-07-29T08:16:22;2.60;;;2.35;;
6203;SDS011;3135;42.602;23.468;2022-07-29T08:18:50;2.60;;;2.40;;
6203;SDS011;3135;42.602;23.468;2022-07-29T08:21:15;2.60;;;1.98;;
6203;SDS011;3135;42.602;23.468;2022-07-29T08:23:43;2.35;;;2.25;;
6203;SDS011;3135;42.602;23.468;2022-07-29T08:26:15;2.53;;;2.33;;
6203;SDS011;3135;42.602;23.468;2022-07-29T08:28:42;2.70;;;2.50;;
6203;SDS011;3135;42.602;23.468;2022-07-29T08:31:14;2.20;;;2.10;;
6203;SDS011;3135;42.602;23.468;2022-07-29T08:33:40;2.50;;;2.30;;
6203;SDS011;3135;42.602;23.468;2022-07-29T08:36:06;3.22;;;2.40;;
6203;SDS011;3135;42.602;23.468;2022-07-29T08:38:32;3.13;;;2.60;;
6203;SDS011;3135;42.602;23.468;2022-07-29T08:40:58;2.90;;;2.60;;
6203;SDS011;3135;42.602;23.468;2022-07-29T08:43:26;2.95;;;2.72;;
6203;SDS011;3135;42.602;23.468;2022-07-29T08:45:55;3.60;;;3.30;;
6203;SDS011;3135;42.602;23.468;2022-07-29T08:48:22;2.85;;;2.65;;
6203;SDS011;3135;42.602;23.468;2022-07-29T08:50:50;2.75;;;2.55;;
6203;SDS011;3135;42.602;23.468;2022-07-29T08:53:19;3.20;;;2.90;;
6203;SDS011;3135;42.602;23.468;2022-07-29T08:55:47;3.83;;;2.95;;
6203;SDS011;3135;42.602;23.468;2022-07-29T08:58:14;3.80;;;3.25;;
6203;SDS011;3135;42.602;23.468;2022-07-29T09:00:41;4.53;;;3.90;;
6203;SDS011;3135;42.602;23.468;2022-07-29T09:03:14;3.20;;;3.00;;
6203;SDS011;3135;42.602;23.468;2022-07-29T09:05:42;3.67;;;3.00;;
6203;SDS011;3135;42.602;23.468;2022-07-29T09:08:10;3.00;;;2.80;;
6203;SDS011;3135;42.602;23.468;2022-07-29T09:10:36;3.33;;;3.00;;
6203;SDS011;3135;42.602;23.468;2022-07-29T09:13:01;5.17;;;2.90;;
6203;SDS011;3135;42.602;23.468;2022-07-29T09:15:27;3.50;;;3.03;;
6203;SDS011;3135;42.602;23.468;2022-07-29T09:17:53;3.70;;;3.40;;
6203;SDS011;3135;42.602;23.468;2022-07-29T09:20:20;4.22;;;3.70;;
6203;SDS011;3135;42.602;23.468;2022-07-29T09:22:47;3.45;;;3.25;;
6203;SDS011;3135;42.602;23.468;2022-07-29T09:25:14;3.50;;;3.22;;
6203;SDS011;3135;42.602;23.468;2022-07-29T09:28:05;3.72;;;3.50;;
6203;SDS011;3135;42.602;23.468;2022-07-29T09:30:33;3.67;;;3.35;;
6203;SDS011;3135;42.602;23.468;2022-07-29T09:33:00;3.47;;;3.17;;
6203;SDS011;3135;42.602;23.468;2022-07-29T09:35:28;3.45;;;3.10;;
6203;SDS011;3135;42.602;23.468;2022-07-29T09:37:54;3.60;;;3.33;;
6203;SDS011;3135;42.602;23.468;2022-07-29T09:40:22;3.88;;;3.53;;
6203;SDS011;3135;42.602;23.468;2022-07-29T09:42:49;2.85;;;2.70;;
6203;SDS011;3135;42.602;23.468;2022-07-29T09:45:34;4.75;;;2.90;;
6203;SDS011;3135;42.602;23.468;2022-07-29T09:48:00;3.17;;;2.90;;
6203;SDS011;3135;42.602;23.468;2022-07-29T09:50:39;3.03;;;2.67;;
6203;SDS011;3135;42.602;23.468;2022-07-29T09:53:06;3.00;;;2.80;;
6203;SDS011;3135;42.602;23.468;2022-07-29T09:55:45;3.00;;;2.70;;
6203;SDS011;3135;42.602;23.468;2022-07-29T09:58:16;3.33;;;2.80;;
6203;SDS011;3135;42.602;23.468;2022-07-29T10:00:46;3.10;;;2.80;;
6203;SDS011;3135;42.602;23.468;2022-07-29T10:03:13;2.78;;;2.58;;
6203;SDS011;3135;42.602;23.468;2022-07-29T10:05:39;2.58;;;2.42;;
6203;SDS011;3135;42.602;23.468;2022-07-29T10:08:05;3.10;;;2.90;;
6203;SDS011;3135;42.602;23.468;2022-07-29T10:10:36;6.38;;;2.65;;
6203;SDS011;3135;42.602;23.468;2022-07-29T10:15:30;2.55;;;2.40;;
6203;SDS011;3135;42.602;23.468;2022-07-29T10:17:58;2.63;;;2.42;;
6203;SDS011;3135;42.602;23.468;2022-07-29T10:20:24;3.00;;;2.80;;
6203;SDS011;3135;42.602;23.468;2022-07-29T10:22:52;3.10;;;2.90;;
6203;SDS011;3135;42.602;23.468;2022-07-29T10:25:18;2.88;;;2.67;;
6203;SDS011;3135;42.602;23.468;2022-07-29T10:27:44;3.03;;;2.50;;
6203;SDS011;3135;42.602;23.468;2022-07-29T10:30:11;2.72;;;2.53;;
6203;SDS011;3135;42.602;23.468;2022-07-29T10:38:42;3.13;;;2.63;;
6203;SDS011;3135;42.602;23.468;2022-07-29T10:44:21;5.10;;;2.72;;
6203;SDS011;3135;42.602;23.468;2022-07-29T10:46:49;4.70;;;3.17;;
6203;SDS011;3135;42.602;23.468;2022-07-29T10:57:30;3.08;;;2.88;;
6203;SDS011;3135;42.602;23.468;2022-07-29T11:05:17;3.00;;;2.67;;
6203;SDS011;3135;42.602;23.468;2022-07-29T11:08:44;2.65;;;2.55;;
6203;SDS011;3135;42.602;23.468;2022-07-29T11:10:44;2.85;;;2.70;;
6203;SDS011;3135;42.602;23.468;2022-07-29T11:13:09;2.90;;;2.70;;
6203;SDS011;3135;42.602;23.468;2022-07-29T11:18:20;3.33;;;2.60;;
6203;SDS011;3135;42.602;23.468;2022-07-29T11:20:47;2.88;;;2.67;;
6203;SDS011;3135;42.602;23.468;2022-07-29T11:31:19;3.40;;;3.20;;
6203;SDS011;3135;42.602;23.468;2022-07-29T11:33:55;2.60;;;2.50;;
6203;SDS011;3135;42.602;23.468;2022-07-29T11:36:21;3.28;;;3.08;;
6203;SDS011;3135;42.602;23.468;2022-07-29T11:38:46;4.22;;;2.90;;
6203;SDS011;3135;42.602;23.468;2022-07-29T11:43:51;3.63;;;2.88;;
6203;SDS011;3135;42.602;23.468;2022-07-29T11:49:22;3.17;;;2.97;;
6203;SDS011;3135;42.602;23.468;2022-07-29T11:51:56;3.13;;;2.83;;
6203;SDS011;3135;42.602;23.468;2022-07-29T11:54:26;3.08;;;2.88;;
6203;SDS011;3135;42.602;23.468;2022-07-29T11:56:57;3.83;;;3.28;;
6203;SDS011;3135;42.602;23.468;2022-07-29T11:59:23;3.22;;;3.03;;
6203;SDS011;3135;42.602;23.468;2022-07-29T12:01:53;3.33;;;3.05;;
6203;SDS011;3135;42.602;23.468;2022-07-29T12:04:22;4.50;;;3.60;;
6203;SDS011;3135;42.602;23.468;2022-07-29T12:06:51;3.80;;;3.50;;
6203;SDS011;3135;42.602;23.468;2022-07-29T12:09:17;3.50;;;3.30;;
6203;SDS011;3135;42.602;23.468;2022-07-29T12:11:43;4.03;;;3.63;;
6203;SDS011;3135;42.602;23.468;2022-07-29T12:14:23;3.60;;;3.40;;
6203;SDS011;3135;42.602;23.468;2022-07-29T12:16:58;3.97;;;3.55;;
6203;SDS011;3135;42.602;23.468;2022-07-29T12:19:25;3.65;;;3.38;;
6203;SDS011;3135;42.602;23.468;2022-07-29T12:21:52;3.65;;;3.35;;
6203;SDS011;3135;42.602;23.468;2022-07-29T12:24:19;3.83;;;3.30;;
6203;SDS011;3135;42.602;23.468;2022-07-29T12:26:52;3.25;;;3.05;;
6203;SDS011;3135;42.602;23.468;2022-07-29T12:29:18;3.50;;;3.20;;
6203;SDS011;3135;42.602;23.468;2022-07-29T12:31:44;3.80;;;3.43;;
6203;SDS011;3135;42.602;23.468;2022-07-29T12:34:15;4.10;;;3.72;;
6203;SDS011;3135;42.602;23.468;2022-07-29T12:36:41;3.63;;;3.30;;
6203;SDS011;3135;42.602;23.468;2022-07-29T12:39:08;4.00;;;3.70;;
6203;SDS011;3135;42.602;23.468;2022-07-29T12:41:34;3.40;;;3.20;;
6203;SDS011;3135;42.602;23.468;2022-07-29T12:44:00;3.50;;;3.30;;
6203;SDS011;3135;42.602;23.468;2022-07-29T12:46:25;3.60;;;3.30;;
6203;SDS011;3135;42.602;23.468;2022-07-29T12:48:52;3.10;;;2.90;;
6203;SDS011;3135;42.602;23.468;2022-07-29T12:51:35;3.33;;;3.13;;
6203;SDS011;3135;42.602;23.468;2022-07-29T12:54:09;4.03;;;3.60;;
6203;SDS011;3135;42.602;23.468;2022-07-29T12:56:39;3.40;;;3.03;;
6203;SDS011;3135;42.602;23.468;2022-07-29T13:01:38;3.63;;;3.35;;
6203;SDS011;3135;42.602;23.468;2022-07-29T13:04:04;3.38;;;3.15;;
6203;SDS011;3135;42.602;23.468;2022-07-29T13:11:42;3.53;;;3.22;;
6203;SDS011;3135;42.602;23.468;2022-07-29T13:14:12;3.27;;;3.00;;
6203;SDS011;3135;42.602;23.468;2022-07-29T13:17:01;3.63;;;3.33;;
6203;SDS011;3135;42.602;23.468;2022-07-29T13:19:39;3.13;;;2.88;;
6203;SDS011;3135;42.602;23.468;2022-07-29T13:22:19;3.72;;;3.42;;
6203;SDS011;3135;42.602;23.468;2022-07-29T13:24:47;4.25;;;3.28;;
6203;SDS011;3135;42.602;23.468;2022-07-29T13:27:16;3.57;;;3.27;;
6203;SDS011;3135;42.602;23.468;2022-07-29T13:29:42;3.55;;;3.30;;
6203;SDS011;3135;42.602;23.468;2022-07-29T13:32:08;3.50;;;3.20;;
6203;SDS011;3135;42.602;23.468;2022-07-29T13:34:34;3.60;;;3.30;;
6203;SDS011;3135;42.602;23.468;2022-07-29T13:36:59;3.58;;;3.28;;
6203;SDS011;3135;42.602;23.468;2022-07-29T13:39:25;3.10;;;2.90;;
6203;SDS011;3135;42.602;23.468;2022-07-29T13:41:50;4.00;;;3.22;;
6203;SDS011;3135;42.602;23.468;2022-07-29T13:44:16;3.33;;;3.10;;
6203;SDS011;3135;42.602;23.468;2022-07-29T13:46:41;3.50;;;3.20;;
6203;SDS011;3135;42.602;23.468;2022-07-29T13:49:07;3.20;;;2.90;;
6203;SDS011;3135;42.602;23.468;2022-07-29T13:51:32;3.30;;;3.00;;
6203;SDS011;3135;42.602;23.468;2022-07-29T13:53:58;3.40;;;3.20;;
6203;SDS011;3135;42.602;23.468;2022-07-29T13:56:23;3.23;;;3.00;;
6203;SDS011;3135;42.602;23.468;2022-07-29T13:58:49;4.57;;;3.15;;
6203;SDS011;3135;42.602;23.468;2022-07-29T14:01:14;3.27;;;3.07;;
6203;SDS011;3135;42.602;23.468;2022-07-29T14:03:40;3.10;;;2.90;;
6203;SDS011;3135;42.602;23.468;2022-07-29T14:06:07;3.42;;;3.13;;
6203;SDS011;3135;42.602;23.468;2022-07-29T14:08:33;3.63;;;3.33;;
6203;SDS011;3135;42.602;23.468;2022-07-29T14:10:59;3.63;;;3.40;;
6203;SDS011;3135;42.602;23.468;2022-07-29T14:13:24;3.20;;;2.93;;
6203;SDS011;3135;42.602;23.468;2022-07-29T14:15:50;3.30;;;3.10;;
6203;SDS011;3135;42.602;23.468;2022-07-29T14:18:15;3.35;;;3.05;;
6203;SDS011;3135;42.602;23.468;2022-07-29T14:20:41;3.27;;;3.00;;
6203;SDS011;3135;42.602;23.468;2022-07-29T14:23:06;3.40;;;3.10;;
6203;SDS011;3135;42.602;23.468;2022-07-29T14:25:32;3.23;;;3.03;;
6203;SDS011;3135;42.602;23.468;2022-07-29T14:27:57;3.30;;;3.10;;
6203;SDS011;3135;42.602;23.468;2022-07-29T14:30:22;3.20;;;3.00;;
6203;SDS011;3135;42.602;23.468;2022-07-29T14:32:48;3.33;;;3.13;;
6203;SDS011;3135;42.602;23.468;2022-07-29T14:35:13;3.50;;;3.00;;
6203;SDS011;3135;42.602;23.468;2022-07-29T14:37:39;3.37;;;3.17;;
6203;SDS011;3135;42.602;23.468;2022-07-29T14:40:05;3.40;;;3.20;;
6203;SDS011;3135;42.602;23.468;2022-07-29T14:42:31;3.60;;;3.30;;
6203;SDS011;3135;42.602;23.468;2022-07-29T14:44:56;2.93;;;2.73;;
6203;SDS011;3135;42.602;23.468;2022-07-29T14:47:22;3.45;;;3.22;;
6203;SDS011;3135;42.602;23.468;2022-07-29T14:49:48;5.90;;;3.17;;
6203;SDS011;3135;42.602;23.468;2022-07-29T14:52:14;3.00;;;2.83;;
6203;SDS011;3135;42.602;23.468;2022-07-29T14:54:39;2.80;;;2.60;;
6203;SDS011;3135;42.602;23.468;2022-07-29T14:57:05;3.10;;;2.90;;
6203;SDS011;3135;42.602;23.468;2022-07-29T14:59:31;3.42;;;3.13;;
6203;SDS011;3135;42.602;23.468;2022-07-29T15:01:56;3.10;;;2.90;;
6203;SDS011;3135;42.602;23.468;2022-07-29T15:04:22;3.30;;;3.10;;
6203;SDS011;3135;42.602;23.468;2022-07-29T15:06:47;2.90;;;2.80;;
6203;SDS011;3135;42.602;23.468;2022-07-29T15:09:13;3.25;;;2.95;;
6203;SDS011;3135;42.602;23.468;2022-07-29T15:11:39;3.30;;;3.00;;
6203;SDS011;3135;42.602;23.468;2022-07-29T15:14:05;2.97;;;2.77;;
6203;SDS011;3135;42.602;23.468;2022-07-29T15:16:31;3.03;;;2.83;;
6203;SDS011;3135;42.602;23.468;2022-07-29T15:18:57;4.03;;;2.97;;
6203;SDS011;3135;42.602;23.468;2022-07-29T15:21:23;3.17;;;2.70;;
6203;SDS011;3135;42.602;23.468;2022-07-29T15:23:49;3.60;;;3.05;;
6203;SDS011;3135;42.602;23.468;2022-07-29T15:26:14;3.13;;;2.90;;
6203;SDS011;3135;42.602;23.468;2022-07-29T15:28:40;3.93;;;3.30;;
6203;SDS011;3135;42.602;23.468;2022-07-29T15:31:05;3.63;;;2.88;;
6203;SDS011;3135;42.602;23.468;2022-07-29T15:33:31;3.20;;;3.00;;
6203;SDS011;3135;42.602;23.468;2022-07-29T15:35:56;3.30;;;3.00;;
6203;SDS011;3135;42.602;23.468;2022-07-29T15:38:22;2.90;;;2.70;;
6203;SDS011;3135;42.602;23.468;2022-07-29T15:40:47;3.90;;;3.00;;
6203;SDS011;3135;42.602;23.468;2022-07-29T15:43:13;4.17;;;2.70;;
6203;SDS011;3135;42.602;23.468;2022-07-29T15:45:39;2.95;;;2.80;;
6203;SDS011;3135;42.602;23.468;2022-07-29T15:48:06;3.28;;;3.00;;
6203;SDS011;3135;42.602;23.468;2022-07-29T15:50:33;2.80;;;2.60;;
6203;SDS011;3135;42.602;23.468;2022-07-29T15:52:59;3.17;;;2.97;;
6203;SDS011;3135;42.602;23.468;2022-07-29T15:55:24;2.97;;;2.78;;
6203;SDS011;3135;42.602;23.468;2022-07-29T15:57:50;2.90;;;2.70;;
6203;SDS011;3135;42.602;23.468;2022-07-29T16:00:15;3.22;;;2.92;;